sensor_id;sensor_type;location;lat;lon;timestamp;pressure;altitude;pressure_sealevel;temperature;humidity
13869;BME280;7004;48.206;16.402;2023-03-01T00:02:03;100835.31;;;0.99;65.38
13869;BME280;7004;48.206;16.402;2023-03-01T00:04:31;100826.63;;;0.97;65.02
13869;BME280;7004;48.206;16.402;2023-03-01T00:06:57;100830.06;;;1.01;64.32
13869;BME280;7004;48.206;16.402;2023-03-01T00:09:23;100830.03;;;1.08;64.28
13869;BME280;7004;48.206;16.402;2023-03-01T00:11:50;100832.53;;;1.21;63.65
13869;BME280;7004;48.206;16.402;2023-03-01T00:14:21;100822.09;;;1.24;63.68
13869;BME280;7004;48.206;16.402;2023-03-01T00:16:49;100830.88;;;1.12;63.74
13869;BME280;7004;48.206;16.402;2023-03-01T00:19:20;100828.34;;;1.00;64.02
13869;BME280;7004;48.206;16.402;2023-03-01T00:21:48;100820.59;;;0.92;65.23
13869;BME280;7004;48.206;16.402;2023-03-01T00:24:15;100825.06;;;0.70;66.26
13869;BME280;7004;48.206;16.402;2023-03-01T00:26:41;100828.63;;;0.52;67.63
13869;BME280;7004;48.206;16.402;2023-03-01T00:29:08;100831.22;;;0.49;67.90
13869;BME280;7004;48.206;16.402;2023-03-01T00:31:34;100826.94;;;0.42;67.40
13869;BME280;7004;48.206;16.402;2023-03-01T00:34:04;100828.72;;;0.34;67.97
13869;BME280;7004;48.206;16.402;2023-03-01T00:36:38;100832.16;;;0.33;68.39
13869;BME280;7004;48.206;16.402;2023-03-01T00:39:09;100830.34;;;0.52;67.46
13869;BME280;7004;48.206;16.402;2023-03-01T00:41:49;100825.16;;;0.49;68.40
13869;BME280;7004;48.206;16.402;2023-03-01T00:44:16;100818.25;;;0.48;68.12
13869;BME280;7004;48.206;16.402;2023-03-01T00:46:43;100822.50;;;0.61;67.96
13869;BME280;7004;48.206;16.402;2023-03-01T00:49:09;100815.59;;;0.55;68.19
13869;BME280;7004;48.206;16.402;2023-03-01T00:51:35;100820.88;;;0.40;68.46
13869;BME280;7004;48.206;16.402;2023-03-01T00:54:02;100820.88;;;0.40;68.34
13869;BME280;7004;48.206;16.402;2023-03-01T00:56:30;100810.47;;;0.35;68.40
13869;BME280;7004;48.206;16.402;2023-03-01T00:58:56;100812.25;;;0.32;68.45
13869;BME280;7004;48.206;16.402;2023-03-01T01:01:26;100809.72;;;0.13;68.91
13869;BME280;7004;48.206;16.402;2023-03-01T01:04:09;100796.72;;;0.07;69.32
13869;BME280;7004;48.206;16.402;2023-03-01T01:06:48;100808.00;;;0.02;70.00
13869;BME280;7004;48.206;16.402;2023-03-01T01:09:22;100807.13;;;0.09;69.85
13869;BME280;7004;48.206;16.402;2023-03-01T01:11:54;100806.22;;;0.14;69.86
13869;BME280;7004;48.206;16.402;2023-03-01T01:14:27;100805.34;;;0.20;69.34
13869;BME280;7004;48.206;16.402;2023-03-01T01:17:05;100801.91;;;0.13;69.44
13869;BME280;7004;48.206;16.402;2023-03-01T01:19:34;100805.44;;;-0.05;70.01
13869;BME280;7004;48.206;16.402;2023-03-01T01:22:16;100795.84;;;0.05;70.09
13869;BME280;7004;48.206;16.402;2023-03-01T01:24:49;100799.28;;;0.19;69.64
13869;BME280;7004;48.206;16.402;2023-03-01T01:27:19;100792.31;;;0.29;69.29
13869;BME280;7004;48.206;16.402;2023-03-01T01:29:53;100794.06;;;0.29;69.78
13869;BME280;7004;48.206;16.402;2023-03-01T01:32:28;100793.22;;;0.19;69.80
13869;BME280;7004;48.206;16.402;2023-03-01T01:35:05;100787.91;;;0.45;68.91
13869;BME280;7004;48.206;16.402;2023-03-01T01:37:35;100785.28;;;0.48;69.85
13869;BME280;7004;48.206;16.402;2023-03-01T01:40:21;100780.94;;;0.49;69.90
13869;BME280;7004;48.206;16.402;2023-03-01T01:43:26;100790.50;;;0.50;68.69
13869;BME280;7004;48.206;16.402;2023-03-01T01:46:25;100780.81;;;0.73;68.38
13869;BME280;7004;48.206;16.402;2023-03-01T01:52:02;100778.16;;;0.78;68.20
13869;BME280;7004;48.206;16.402;2023-03-01T01:57:46;100775.38;;;1.05;67.88
13869;BME280;7004;48.206;16.402;2023-03-01T02:00:32;100771.91;;;1.05;66.59
13869;BME280;7004;48.206;16.402;2023-03-01T02:03:31;100771.78;;;1.19;66.32
13869;BME280;7004;48.206;16.402;2023-03-01T02:06:29;100769.22;;;1.17;66.48
13869;BME280;7004;48.206;16.402;2023-03-01T02:09:05;100768.56;;;0.89;67.38
13869;BME280;7004;48.206;16.402;2023-03-01T02:11:52;100765.75;;;1.15;65.89
13869;BME280;7004;48.206;16.402;2023-03-01T02:14:19;100755.19;;;1.29;67.04
13869;BME280;7004;48.206;16.402;2023-03-01T02:16:46;100760.47;;;1.21;67.22
13869;BME280;7004;48.206;16.402;2023-03-01T02:22:31;100753.34;;;1.42;66.03
13869;BME280;7004;48.206;16.402;2023-03-01T02:25:07;100762.31;;;1.10;65.91
13869;BME280;7004;48.206;16.402;2023-03-01T02:30:48;100759.59;;;1.24;66.25
13869;BME280;7004;48.206;16.402;2023-03-01T02:33:36;100769.25;;;1.11;68.03
13869;BME280;7004;48.206;16.402;2023-03-01T02:36:21;100764.91;;;1.12;68.50
13869;BME280;7004;48.206;16.402;2023-03-01T02:38:53;100756.38;;;0.93;68.17
13869;BME280;7004;48.206;16.402;2023-03-01T02:41:20;100757.13;;;1.07;67.24
13869;BME280;7004;48.206;16.402;2023-03-01T02:43:48;100751.84;;;1.18;66.33
13869;BME280;7004;48.206;16.402;2023-03-01T02:46:23;100760.59;;;1.07;66.48
13869;BME280;7004;48.206;16.402;2023-03-01T02:48:57;100748.25;;;1.31;66.68
13869;BME280;7004;48.206;16.402;2023-03-01T02:51:56;100743.00;;;1.36;67.14
13869;BME280;7004;48.206;16.402;2023-03-01T02:55:09;100749.16;;;1.24;67.78
13869;BME280;7004;48.206;16.402;2023-03-01T02:57:44;100751.06;;;1.06;67.80
13869;BME280;7004;48.206;16.402;2023-03-01T03:00:28;100742.28;;;1.17;67.69
13869;BME280;7004;48.206;16.402;2023-03-01T03:03:01;100745.88;;;1.03;67.93
13869;BME280;7004;48.206;16.402;2023-03-01T03:05:30;100750.34;;;0.84;68.49
13869;BME280;7004;48.206;16.402;2023-03-01T03:08:12;100747.75;;;0.86;68.57
13869;BME280;7004;48.206;16.402;2023-03-01T03:10:41;100742.56;;;0.80;69.22
13869;BME280;7004;48.206;16.402;2023-03-01T03:13:13;100746.88;;;0.85;69.20
13869;BME280;7004;48.206;16.402;2023-03-01T03:15:42;100744.22;;;0.93;68.39
13869;BME280;7004;48.206;16.402;2023-03-01T03:18:27;100738.13;;;0.99;68.95
13869;BME280;7004;48.206;16.402;2023-03-01T03:20:54;100733.44;;;1.35;68.43
13869;BME280;7004;48.206;16.402;2023-03-01T03:23:23;100736.28;;;1.10;67.11
13869;BME280;7004;48.206;16.402;2023-03-01T03:25:51;100732.97;;;0.88;67.77
13869;BME280;7004;48.206;16.402;2023-03-01T03:28:37;100729.38;;;1.04;67.27
13869;BME280;7004;48.206;16.402;2023-03-01T03:31:25;100733.81;;;0.90;68.04
13869;BME280;7004;48.206;16.402;2023-03-01T03:33:52;100721.63;;;0.97;68.14
13869;BME280;7004;48.206;16.402;2023-03-01T03:36:24;100726.50;;;1.34;66.93
13869;BME280;7004;48.206;16.402;2023-03-01T03:38:54;100731.66;;;1.41;66.66
13869;BME280;7004;48.206;16.402;2023-03-01T03:41:39;100733.28;;;1.50;66.17
13869;BME280;7004;48.206;16.402;2023-03-01T03:44:06;100727.41;;;1.33;66.71
13869;BME280;7004;48.206;16.402;2023-03-01T03:46:43;100723.97;;;1.27;67.40
13869;BME280;7004;48.206;16.402;2023-03-01T03:49:09;100725.66;;;1.33;66.65
13869;BME280;7004;48.206;16.402;2023-03-01T03:51:36;100728.66;;;0.85;68.64
13869;BME280;7004;48.206;16.402;2023-03-01T03:54:02;100725.91;;;1.04;67.84
13869;BME280;7004;48.206;16.402;2023-03-01T03:56:28;100717.38;;;0.85;69.52
13869;BME280;7004;48.206;16.402;2023-03-01T03:58:55;100718.81;;;1.23;68.64
13869;BME280;7004;48.206;16.402;2023-03-01T04:01:21;100723.41;;;0.90;68.44
13869;BME280;7004;48.206;16.402;2023-03-01T04:04:06;100728.66;;;0.87;68.74
13869;BME280;7004;48.206;16.402;2023-03-01T04:06:33;100717.16;;;1.13;67.69
13869;BME280;7004;48.206;16.402;2023-03-01T04:09:03;100715.25;;;1.30;67.48
13869;BME280;7004;48.206;16.402;2023-03-01T04:11:29;100724.31;;;0.86;69.22
13869;BME280;7004;48.206;16.402;2023-03-01T04:13:57;100724.88;;;1.25;68.67
13869;BME280;7004;48.206;16.402;2023-03-01T04:16:29;100719.75;;;1.11;67.94
13869;BME280;7004;48.206;16.402;2023-03-01T04:18:56;100717.28;;;0.97;68.44
13869;BME280;7004;48.206;16.402;2023-03-01T04:21:25;100711.13;;;1.07;69.09
13869;BME280;7004;48.206;16.402;2023-03-01T04:23:52;100712.94;;;0.99;70.75
13869;BME280;7004;48.206;16.402;2023-03-01T04:26:19;100725.13;;;0.94;71.28
13869;BME280;7004;48.206;16.402;2023-03-01T04:28:46;100722.25;;;1.22;68.91
13869;BME280;7004;48.206;16.402;2023-03-01T04:31:16;100729.84;;;1.46;67.41
13869;BME280;7004;48.206;16.402;2023-03-01T04:33:52;100722.50;;;0.97;68.98
13869;BME280;7004;48.206;16.402;2023-03-01T04:36:26;100730.50;;;0.73;70.48
13869;BME280;7004;48.206;16.402;2023-03-01T04:38:53;100733.97;;;0.69;70.64
13869;BME280;7004;48.206;16.402;2023-03-01T04:41:23;100727.00;;;0.74;71.60
13869;BME280;7004;48.206;16.402;2023-03-01T04:43:50;100729.66;;;0.68;71.58
13869;BME280;7004;48.206;16.402;2023-03-01T04:46:20;100727.81;;;0.80;71.28
13869;BME280;7004;48.206;16.402;2023-03-01T04:48:47;100726.94;;;0.84;71.06
13869;BME280;7004;48.206;16.402;2023-03-01T04:51:13;100722.59;;;0.82;71.36
13869;BME280;7004;48.206;16.402;2023-03-01T04:53:41;100724.31;;;0.84;71.32
13869;BME280;7004;48.206;16.402;2023-03-01T04:56:08;100725.28;;;0.70;72.40
13869;BME280;7004;48.206;16.402;2023-03-01T04:58:35;100729.44;;;0.97;71.33
13869;BME280;7004;48.206;16.402;2023-03-01T05:01:01;100728.66;;;0.89;71.00
13869;BME280;7004;48.206;16.402;2023-03-01T05:03:48;100732.28;;;0.68;71.31
13869;BME280;7004;48.206;16.402;2023-03-01T05:06:17;100732.09;;;0.87;71.60
13869;BME280;7004;48.206;16.402;2023-03-01T05:08:44;100731.97;;;1.04;70.85
13869;BME280;7004;48.206;16.402;2023-03-01T05:11:11;100740.84;;;0.77;71.34
13869;BME280;7004;48.206;16.402;2023-03-01T05:13:40;100735.56;;;0.90;70.88
13869;BME280;7004;48.206;16.402;2023-03-01T05:16:07;100733.63;;;1.15;70.59
13869;BME280;7004;48.206;16.402;2023-03-01T05:18:38;100733.78;;;0.93;70.64
13869;BME280;7004;48.206;16.402;2023-03-01T05:21:10;100730.22;;;1.08;70.26
13869;BME280;7004;48.206;16.402;2023-03-01T05:23:39;100730.50;;;0.71;72.06
13869;BME280;7004;48.206;16.402;2023-03-01T05:26:07;100740.00;;;0.77;71.62
13869;BME280;7004;48.206;16.402;2023-03-01T05:28:35;100738.97;;;0.98;71.56
13869;BME280;7004;48.206;16.402;2023-03-01T05:31:02;100737.13;;;1.11;70.77
13869;BME280;7004;48.206;16.402;2023-03-01T05:33:29;100738.63;;;1.38;69.52
13869;BME280;7004;48.206;16.402;2023-03-01T05:36:00;100747.63;;;1.00;69.84
13869;BME280;7004;48.206;16.402;2023-03-01T05:38:26;100742.19;;;1.30;69.04
13869;BME280;7004;48.206;16.402;2023-03-01T05:40:52;100747.34;;;1.34;68.19
13869;BME280;7004;48.206;16.402;2023-03-01T05:43:19;100748.06;;;1.51;67.56
13869;BME280;7004;48.206;16.402;2023-03-01T05:45:45;100756.97;;;1.25;68.54
13869;BME280;7004;48.206;16.402;2023-03-01T05:48:13;100750.84;;;1.31;68.34
13869;BME280;7004;48.206;16.402;2023-03-01T05:50:43;100757.97;;;1.11;69.21
13869;BME280;7004;48.206;16.402;2023-03-01T05:53:14;100759.09;;;0.76;71.46
13869;BME280;7004;48.206;16.402;2023-03-01T05:55:42;100768.50;;;0.97;69.88
13869;BME280;7004;48.206;16.402;2023-03-01T05:58:13;100757.28;;;0.89;71.20
13869;BME280;7004;48.206;16.402;2023-03-01T06:00:40;100763.41;;;0.81;72.32
13869;BME280;7004;48.206;16.402;2023-03-01T06:03:09;100761.66;;;0.80;72.12
13869;BME280;7004;48.206;16.402;2023-03-01T06:05:36;100765.09;;;0.85;72.31
13869;BME280;7004;48.206;16.402;2023-03-01T06:08:03;100764.00;;;1.17;70.92
13869;BME280;7004;48.206;16.402;2023-03-01T06:10:29;100765.84;;;1.04;70.92
13869;BME280;7004;48.206;16.402;2023-03-01T06:12:56;100758.69;;;1.28;70.13
13869;BME280;7004;48.206;16.402;2023-03-01T06:15:22;100763.09;;;1.17;69.56
13869;BME280;7004;48.206;16.402;2023-03-01T06:17:49;100769.34;;;0.97;71.01
13869;BME280;7004;48.206;16.402;2023-03-01T06:20:22;100766.75;;;0.99;70.92
13869;BME280;7004;48.206;16.402;2023-03-01T06:22:49;100761.50;;;1.05;70.91
13869;BME280;7004;48.206;16.402;2023-03-01T06:25:20;100760.63;;;1.04;71.44
13869;BME280;7004;48.206;16.402;2023-03-01T06:27:47;100755.34;;;1.11;71.08
13869;BME280;7004;48.206;16.402;2023-03-01T06:30:17;100759.63;;;1.19;70.75
13869;BME280;7004;48.206;16.402;2023-03-01T06:32:44;100762.38;;;1.01;71.22
13869;BME280;7004;48.206;16.402;2023-03-01T06:35:12;100761.41;;;1.17;71.03
13869;BME280;7004;48.206;16.402;2023-03-01T06:37:40;100759.78;;;1.01;71.66
13869;BME280;7004;48.206;16.402;2023-03-01T06:40:08;100762.19;;;1.25;70.98
13869;BME280;7004;48.206;16.402;2023-03-01T06:42:39;100766.59;;;1.14;71.85
13869;BME280;7004;48.206;16.402;2023-03-01T06:45:07;100777.94;;;1.08;70.92
13869;BME280;7004;48.206;16.402;2023-03-01T06:47:34;100777.00;;;1.20;70.89
13869;BME280;7004;48.206;16.402;2023-03-01T06:50:02;100770.78;;;1.34;70.42
13869;BME280;7004;48.206;16.402;2023-03-01T06:52:29;100779.22;;;1.60;69.55
13869;BME280;7004;48.206;16.402;2023-03-01T06:54:55;100777.84;;;1.21;70.49
13869;BME280;7004;48.206;16.402;2023-03-01T06:57:21;100778.81;;;1.12;70.41
13869;BME280;7004;48.206;16.402;2023-03-01T06:59:48;100776.06;;;1.26;70.41
13869;BME280;7004;48.206;16.402;2023-03-01T07:02:14;100769.00;;;1.37;69.42
13869;BME280;7004;48.206;16.402;2023-03-01T07:04:42;100770.53;;;1.60;68.82
13869;BME280;7004;48.206;16.402;2023-03-01T07:07:09;100766.44;;;1.36;69.75
13869;BME280;7004;48.206;16.402;2023-03-01T07:09:35;100766.22;;;1.56;68.95
13869;BME280;7004;48.206;16.402;2023-03-01T07:12:01;100762.66;;;1.66;68.09
13869;BME280;7004;48.206;16.402;2023-03-01T07:14:28;100765.91;;;1.88;67.02
13869;BME280;7004;48.206;16.402;2023-03-01T07:16:55;100760.94;;;1.66;68.28
13869;BME280;7004;48.206;16.402;2023-03-01T07:19:22;100761.59;;;1.87;67.53
13869;BME280;7004;48.206;16.402;2023-03-01T07:21:48;100759.59;;;2.07;67.82
13869;BME280;7004;48.206;16.402;2023-03-01T07:24:14;100766.63;;;2.01;68.11
13869;BME280;7004;48.206;16.402;2023-03-01T07:26:41;100767.59;;;1.92;66.83
13869;BME280;7004;48.206;16.402;2023-03-01T07:29:09;100771.00;;;1.99;67.76
13869;BME280;7004;48.206;16.402;2023-03-01T07:31:36;100766.03;;;1.77;68.20
13869;BME280;7004;48.206;16.402;2023-03-01T07:34:03;100765.41;;;2.29;66.33
13869;BME280;7004;48.206;16.402;2023-03-01T07:36:29;100762.09;;;2.15;67.65
13869;BME280;7004;48.206;16.402;2023-03-01T07:38:55;100754.06;;;2.32;66.90
13869;BME280;7004;48.206;16.402;2023-03-01T07:41:21;100759.16;;;1.70;68.14
13869;BME280;7004;48.206;16.402;2023-03-01T07:43:48;100758.16;;;1.82;67.27
13869;BME280;7004;48.206;16.402;2023-03-01T07:46:14;100755.97;;;2.21;66.87
13869;BME280;7004;48.206;16.402;2023-03-01T07:48:40;100755.84;;;2.31;66.23
13869;BME280;7004;48.206;16.402;2023-03-01T07:51:07;100754.66;;;1.83;67.12
13869;BME280;7004;48.206;16.402;2023-03-01T07:53:34;100752.75;;;2.65;65.77
13869;BME280;7004;48.206;16.402;2023-03-01T07:56:07;100756.63;;;2.35;64.93
13869;BME280;7004;48.206;16.402;2023-03-01T07:58:42;100754.84;;;2.40;65.74
13869;BME280;7004;48.206;16.402;2023-03-01T08:01:16;100757.81;;;2.09;66.21
13869;BME280;7004;48.206;16.402;2023-03-01T08:03:42;100755.44;;;2.60;65.49
13869;BME280;7004;48.206;16.402;2023-03-01T08:06:11;100755.44;;;2.59;64.34
13869;BME280;7004;48.206;16.402;2023-03-01T08:08:38;100759.63;;;2.71;63.47
13869;BME280;7004;48.206;16.402;2023-03-01T08:11:06;100762.75;;;2.34;64.03
13869;BME280;7004;48.206;16.402;2023-03-01T08:13:33;100754.47;;;2.65;63.77
13869;BME280;7004;48.206;16.402;2023-03-01T08:16:11;100757.22;;;2.55;63.56
13869;BME280;7004;48.206;16.402;2023-03-01T08:18:37;100748.00;;;2.92;63.08
13869;BME280;7004;48.206;16.402;2023-03-01T08:21:06;100740.59;;;3.18;60.75
13869;BME280;7004;48.206;16.402;2023-03-01T08:23:33;100744.34;;;3.02;61.74
13869;BME280;7004;48.206;16.402;2023-03-01T08:28:38;100741.91;;;3.42;60.52
13869;BME280;7004;48.206;16.402;2023-03-01T08:31:29;100745.09;;;3.60;59.72
13869;BME280;7004;48.206;16.402;2023-03-01T08:33:59;100748.03;;;3.40;60.62
13869;BME280;7004;48.206;16.402;2023-03-01T08:36:32;100746.19;;;3.46;59.78
13869;BME280;7004;48.206;16.402;2023-03-01T08:38:59;100749.31;;;3.68;59.96
13869;BME280;7004;48.206;16.402;2023-03-01T08:41:26;100746.34;;;3.39;60.94
13869;BME280;7004;48.206;16.402;2023-03-01T08:43:53;100744.66;;;3.81;59.44
13869;BME280;7004;48.206;16.402;2023-03-01T08:46:37;100730.72;;;4.26;58.66
13869;BME280;7004;48.206;16.402;2023-03-01T08:49:05;100722.63;;;4.75;56.66
13869;BME280;7004;48.206;16.402;2023-03-01T08:51:32;100725.91;;;4.04;57.88
13869;BME280;7004;48.206;16.402;2023-03-01T08:54:22;100719.94;;;4.38;57.35
13869;BME280;7004;48.206;16.402;2023-03-01T08:56:48;100722.78;;;4.68;56.37
13869;BME280;7004;48.206;16.402;2023-03-01T08:59:16;100721.63;;;4.42;56.41
13869;BME280;7004;48.206;16.402;2023-03-01T09:01:43;100727.03;;;4.33;57.03
13869;BME280;7004;48.206;16.402;2023-03-01T09:04:10;100723.22;;;4.49;56.34
13869;BME280;7004;48.206;16.402;2023-03-01T09:06:37;100708.03;;;5.01;55.77
13869;BME280;7004;48.206;16.402;2023-03-01T09:09:05;100713.00;;;5.12;54.67
13869;BME280;7004;48.206;16.402;2023-03-01T09:11:31;100697.41;;;5.06;54.79
13869;BME280;7004;48.206;16.402;2023-03-01T09:13:58;100705.00;;;4.43;55.63
13869;BME280;7004;48.206;16.402;2023-03-01T09:16:24;100698.63;;;5.26;53.97
13869;BME280;7004;48.206;16.402;2023-03-01T09:18:53;100696.53;;;5.39;54.03
13869;BME280;7004;48.206;16.402;2023-03-01T09:21:22;100695.13;;;5.26;53.79
13869;BME280;7004;48.206;16.402;2023-03-01T09:23:49;100684.94;;;5.48;52.98
13869;BME280;7004;48.206;16.402;2023-03-01T09:26:19;100681.63;;;5.41;53.01
13869;BME280;7004;48.206;16.402;2023-03-01T09:28:49;100685.88;;;4.41;55.28
13869;BME280;7004;48.206;16.402;2023-03-01T09:31:16;100682.69;;;5.01;53.66
13869;BME280;7004;48.206;16.402;2023-03-01T09:33:46;100684.47;;;4.64;54.08
13869;BME280;7004;48.206;16.402;2023-03-01T09:36:19;100673.84;;;5.38;52.65
13869;BME280;7004;48.206;16.402;2023-03-01T09:38:47;100676.97;;;5.18;52.82
13869;BME280;7004;48.206;16.402;2023-03-01T09:44:59;100674.06;;;5.62;52.62
13869;BME280;7004;48.206;16.402;2023-03-01T09:47:35;100670.41;;;5.67;52.85
13869;BME280;7004;48.206;16.402;2023-03-01T09:50:19;100666.44;;;5.21;51.91
13869;BME280;7004;48.206;16.402;2023-03-01T09:53:15;100664.31;;;5.34;52.93
13869;BME280;7004;48.206;16.402;2023-03-01T09:56:25;100661.88;;;5.28;52.76
13869;BME280;7004;48.206;16.402;2023-03-01T09:59:04;100660.56;;;5.44;52.84
13869;BME280;7004;48.206;16.402;2023-03-01T10:08:14;100649.78;;;5.86;50.39
13869;BME280;7004;48.206;16.402;2023-03-01T10:10:47;100644.41;;;5.60;51.57
13869;BME280;7004;48.206;16.402;2023-03-01T10:16:21;100642.91;;;5.51;52.07
13869;BME280;7004;48.206;16.402;2023-03-01T10:18:57;100637.44;;;5.88;51.51
13869;BME280;7004;48.206;16.402;2023-03-01T10:21:25;100634.59;;;5.66;52.40
13869;BME280;7004;48.206;16.402;2023-03-01T10:23:52;100629.75;;;6.42;50.20
13869;BME280;7004;48.206;16.402;2023-03-01T10:27:00;100626.34;;;6.91;48.77
13869;BME280;7004;48.206;16.402;2023-03-01T10:29:43;100625.41;;;6.67;49.66
13869;BME280;7004;48.206;16.402;2023-03-01T10:32:11;100626.63;;;6.84;49.78
13869;BME280;7004;48.206;16.402;2023-03-01T10:34:38;100608.44;;;7.76;48.29
13869;BME280;7004;48.206;16.402;2023-03-01T10:37:14;100611.94;;;7.52;49.65
13869;BME280;7004;48.206;16.402;2023-03-01T10:40:07;100600.47;;;8.45;46.01
13869;BME280;7004;48.206;16.402;2023-03-01T10:42:48;100608.88;;;7.40;48.12
13869;BME280;7004;48.206;16.402;2023-03-01T10:45:36;100602.63;;;7.66;47.22
13869;BME280;7004;48.206;16.402;2023-03-01T10:50:34;100589.91;;;9.68;43.35
13869;BME280;7004;48.206;16.402;2023-03-01T10:53:04;100576.66;;;8.48;45.15
13869;BME280;7004;48.206;16.402;2023-03-01T10:55:39;100577.78;;;9.04;44.31
13869;BME280;7004;48.206;16.402;2023-03-01T11:01:03;100559.53;;;9.96;42.67
13869;BME280;7004;48.206;16.402;2023-03-01T11:03:36;100555.63;;;8.03;46.70
13869;BME280;7004;48.206;16.402;2023-03-01T11:11:28;100543.50;;;9.04;44.58
13869;BME280;7004;48.206;16.402;2023-03-01T11:16:58;100523.25;;;10.72;40.94
13869;BME280;7004;48.206;16.402;2023-03-01T11:19:24;100526.03;;;10.69;41.40
13869;BME280;7004;48.206;16.402;2023-03-01T11:22:12;100531.78;;;8.91;44.36
13869;BME280;7004;48.206;16.402;2023-03-01T11:24:52;100528.66;;;9.79;42.65
13869;BME280;7004;48.206;16.402;2023-03-01T11:30:32;100522.97;;;9.69;42.28
13869;BME280;7004;48.206;16.402;2023-03-01T11:38:46;100523.53;;;10.83;40.39
13869;BME280;7004;48.206;16.402;2023-03-01T11:41:28;100517.50;;;10.97;41.39
13869;BME280;7004;48.206;16.402;2023-03-01T12:04:11;100516.84;;;9.10;44.20
13869;BME280;7004;48.206;16.402;2023-03-01T12:10:30;100525.25;;;8.79;43.88
13869;BME280;7004;48.206;16.402;2023-03-01T12:13:18;100523.38;;;8.40;45.64
13869;BME280;7004;48.206;16.402;2023-03-01T12:29:49;100496.34;;;8.35;46.66
13869;BME280;7004;48.206;16.402;2023-03-01T12:35:16;100493.44;;;8.43;47.08
13869;BME280;7004;48.206;16.402;2023-03-01T12:37:56;100506.63;;;8.63;46.29
13869;BME280;7004;48.206;16.402;2023-03-01T12:43:47;100481.09;;;9.24;45.37
13869;BME280;7004;48.206;16.402;2023-03-01T12:49:48;100484.34;;;8.70;46.55
13869;BME280;7004;48.206;16.402;2023-03-01T12:54:57;100484.81;;;8.39;48.66
13869;BME280;7004;48.206;16.402;2023-03-01T12:57:38;100481.56;;;9.13;46.60
13869;BME280;7004;48.206;16.402;2023-03-01T13:00:32;100472.66;;;8.96;46.84
13869;BME280;7004;48.206;16.402;2023-03-01T13:06:07;100465.09;;;8.48;47.19
13869;BME280;7004;48.206;16.402;2023-03-01T13:11:21;100461.19;;;9.16;46.18
13869;BME280;7004;48.206;16.402;2023-03-01T13:13:49;100460.44;;;8.94;46.79
13869;BME280;7004;48.206;16.402;2023-03-01T13:16:41;100465.06;;;8.89;46.48
13869;BME280;7004;48.206;16.402;2023-03-01T13:19:27;100466.56;;;8.75;46.81
13869;BME280;7004;48.206;16.402;2023-03-01T13:21:58;100457.50;;;8.81;47.26
13869;BME280;7004;48.206;16.402;2023-03-01T13:27:23;100463.03;;;8.56;47.75
13869;BME280;7004;48.206;16.402;2023-03-01T13:30:00;100461.94;;;9.00;47.33
13869;BME280;7004;48.206;16.402;2023-03-01T13:32:37;100457.72;;;9.16;47.57
13869;BME280;7004;48.206;16.402;2023-03-01T13:35:40;100442.69;;;9.54;46.50
13869;BME280;7004;48.206;16.402;2023-03-01T13:52:45;100426.34;;;9.29;47.76
13869;BME280;7004;48.206;16.402;2023-03-01T13:55:30;100429.06;;;9.08;48.64
13869;BME280;7004;48.206;16.402;2023-03-01T13:58:01;100436.69;;;8.75;48.62
13869;BME280;7004;48.206;16.402;2023-03-01T14:00:39;100425.47;;;8.90;48.64
13869;BME280;7004;48.206;16.402;2023-03-01T14:03:17;100405.72;;;8.99;48.74
13869;BME280;7004;48.206;16.402;2023-03-01T14:08:36;100403.94;;;9.00;48.08
13869;BME280;7004;48.206;16.402;2023-03-01T14:20:32;100397.84;;;8.19;50.27
13869;BME280;7004;48.206;16.402;2023-03-01T14:23:08;100394.31;;;8.80;50.23
13869;BME280;7004;48.206;16.402;2023-03-01T14:25:37;100383.72;;;9.19;49.45
13869;BME280;7004;48.206;16.402;2023-03-01T14:28:22;100390.34;;;8.90;49.93
13869;BME280;7004;48.206;16.402;2023-03-01T14:30:52;100387.94;;;8.46;50.98
13869;BME280;7004;48.206;16.402;2023-03-01T14:33:23;100383.59;;;8.64;49.89
13869;BME280;7004;48.206;16.402;2023-03-01T14:36:06;100379.47;;;8.58;50.10
13869;BME280;7004;48.206;16.402;2023-03-01T14:38:40;100383.78;;;8.80;50.17
13869;BME280;7004;48.206;16.402;2023-03-01T14:43:34;100386.84;;;8.09;51.94
13869;BME280;7004;48.206;16.402;2023-03-01T14:46:01;100382.75;;;8.63;51.23
13869;BME280;7004;48.206;16.402;2023-03-01T14:48:28;100379.34;;;8.80;50.85
13869;BME280;7004;48.206;16.402;2023-03-01T14:50:55;100389.84;;;7.79;53.23
13869;BME280;7004;48.206;16.402;2023-03-01T14:53:25;100386.59;;;8.15;52.39
13869;BME280;7004;48.206;16.402;2023-03-01T14:55:56;100386.28;;;8.43;51.91
13869;BME280;7004;48.206;16.402;2023-03-01T14:58:28;100384.00;;;8.14;52.13
13869;BME280;7004;48.206;16.402;2023-03-01T15:00:59;100388.47;;;8.32;51.58
13869;BME280;7004;48.206;16.402;2023-03-01T15:06:03;100390.31;;;7.89;52.88
13869;BME280;7004;48.206;16.402;2023-03-01T15:08:31;100390.91;;;7.96;52.51
13869;BME280;7004;48.206;16.402;2023-03-01T15:11:04;100386.13;;;8.05;52.82
13869;BME280;7004;48.206;16.402;2023-03-01T15:13:33;100376.72;;;8.20;52.19
13869;BME280;7004;48.206;16.402;2023-03-01T15:18:37;100379.59;;;8.14;52.94
13869;BME280;7004;48.206;16.402;2023-03-01T15:23:54;100374.53;;;7.89;53.23
13869;BME280;7004;48.206;16.402;2023-03-01T15:26:29;100372.09;;;8.05;53.32
13869;BME280;7004;48.206;16.402;2023-03-01T15:28:58;100371.91;;;8.09;52.74
13869;BME280;7004;48.206;16.402;2023-03-01T15:31:29;100376.84;;;7.97;52.58
13869;BME280;7004;48.206;16.402;2023-03-01T15:34:22;100375.53;;;7.86;53.18
13869;BME280;7004;48.206;16.402;2023-03-01T15:36:52;100375.84;;;7.99;52.83
13869;BME280;7004;48.206;16.402;2023-03-01T15:39:53;100372.28;;;8.00;54.07
13869;BME280;7004;48.206;16.402;2023-03-01T15:48:17;100375.47;;;7.66;54.76
13869;BME280;7004;48.206;16.402;2023-03-01T15:50:57;100382.13;;;7.75;53.92
13869;BME280;7004;48.206;16.402;2023-03-01T15:53:24;100374.53;;;7.89;53.50
13869;BME280;7004;48.206;16.402;2023-03-01T15:55:52;100375.09;;;7.75;54.32
13869;BME280;7004;48.206;16.402;2023-03-01T15:58:25;100379.13;;;7.84;53.31
13869;BME280;7004;48.206;16.402;2023-03-01T16:00:51;100381.94;;;7.79;53.88